sensor_id;sensor_type;location;lat;lon;timestamp;P1;durP1;ratioP1;P2;durP2;ratioP2
73585;SDS011;61865;50.232;18.614;2022-09-17T00:01:03;16.88;;;11.00;;
73585;SDS011;61865;50.232;18.614;2022-09-17T00:03:26;17.20;;;9.73;;
73585;SDS011;61865;50.232;18.614;2022-09-17T00:05:48;14.05;;;9.30;;
73585;SDS011;61865;50.232;18.614;2022-09-17T00:08:11;15.93;;;9.35;;
73585;SDS011;61865;50.232;18.614;2022-09-17T00:10:36;28.95;;;10.27;;
73585;SDS011;61865;50.232;18.614;2022-09-17T00:13:00;12.50;;;7.88;;
73585;SDS011;61865;50.232;18.614;2022-09-17T00:15:22;12.93;;;8.13;;
73585;SDS011;61865;50.232;18.614;2022-09-17T00:17:44;11.88;;;7.00;;
73585;SDS011;61865;50.232;18.614;2022-09-17T00:20:06;10.23;;;5.40;;
73585;SDS011;61865;50.232;18.614;2022-09-17T00:22:29;11.85;;;7.18;;
73585;SDS011;61865;50.232;18.614;2022-09-17T00:24:51;14.15;;;7.47;;
73585;SDS011;61865;50.232;18.614;2022-09-17T00:27:13;12.20;;;7.82;;
73585;SDS011;61865;50.232;18.614;2022-09-17T00:29:36;9.77;;;7.07;;
73585;SDS011;61865;50.232;18.614;2022-09-17T00:31:58;16.05;;;8.68;;
73585;SDS011;61865;50.232;18.614;2022-09-17T00:34:20;12.60;;;9.10;;
73585;SDS011;61865;50.232;18.614;2022-09-17T00:36:41;17.35;;;10.18;;
73585;SDS011;61865;50.232;18.614;2022-09-17T00:39:04;16.73;;;8.55;;
73585;SDS011;61865;50.232;18.614;2022-09-17T00:41:28;17.90;;;9.27;;
73585;SDS011;61865;50.232;18.614;2022-09-17T00:43:53;20.02;;;10.68;;
73585;SDS011;61865;50.232;18.614;2022-09-17T00:46:25;20.77;;;10.95;;
73585;SDS011;61865;50.232;18.614;2022-09-17T00:48:52;17.60;;;12.07;;
73585;SDS011;61865;50.232;18.614;2022-09-17T00:51:16;16.85;;;11.25;;
73585;SDS011;61865;50.232;18.614;2022-09-17T00:53:42;15.40;;;10.25;;
73585;SDS011;61865;50.232;18.614;2022-09-17T00:56:06;15.68;;;9.70;;
73585;SDS011;61865;50.232;18.614;2022-09-17T00:58:34;14.85;;;10.60;;
73585;SDS011;61865;50.232;18.614;2022-09-17T01:00:58;17.77;;;9.25;;
73585;SDS011;61865;50.232;18.614;2022-09-17T01:03:22;15.75;;;8.80;;
73585;SDS011;61865;50.232;18.614;2022-09-17T01:05:44;14.60;;;8.68;;
73585;SDS011;61865;50.232;18.614;2022-09-17T01:08:11;12.75;;;7.88;;
73585;SDS011;61865;50.232;18.614;2022-09-17T01:10:46;11.60;;;7.88;;
73585;SDS011;61865;50.232;18.614;2022-09-17T01:13:19;14.13;;;8.70;;
73585;SDS011;61865;50.232;18.614;2022-09-17T01:15:53;13.52;;;8.00;;
73585;SDS011;61865;50.232;18.614;2022-09-17T01:18:27;13.13;;;7.60;;
73585;SDS011;61865;50.232;18.614;2022-09-17T01:24:04;12.13;;;8.13;;
73585;SDS011;61865;50.232;18.614;2022-09-17T01:26:45;11.70;;;7.45;;
73585;SDS011;61865;50.232;18.614;2022-09-17T01:29:21;9.80;;;7.20;;
73585;SDS011;61865;50.232;18.614;2022-09-17T01:31:53;12.00;;;6.70;;
73585;SDS011;61865;50.232;18.614;2022-09-17T01:34:23;16.60;;;8.07;;
73585;SDS011;61865;50.232;18.614;2022-09-17T01:36:56;11.10;;;6.55;;
73585;SDS011;61865;50.232;18.614;2022-09-17T01:39:30;12.05;;;6.60;;
73585;SDS011;61865;50.232;18.614;2022-09-17T01:42:01;8.85;;;5.47;;
73585;SDS011;61865;50.232;18.614;2022-09-17T01:44:30;9.23;;;6.65;;
73585;SDS011;61865;50.232;18.614;2022-09-17T01:47:00;9.57;;;6.30;;
73585;SDS011;61865;50.232;18.614;2022-09-17T01:49:29;9.77;;;5.80;;
73585;SDS011;61865;50.232;18.614;2022-09-17T01:51:53;9.20;;;5.63;;
73585;SDS011;61865;50.232;18.614;2022-09-17T01:54:16;8.73;;;5.78;;
73585;SDS011;61865;50.232;18.614;2022-09-17T01:56:43;9.05;;;5.70;;
73585;SDS011;61865;50.232;18.614;2022-09-17T01:59:10;7.20;;;5.25;;
73585;SDS011;61865;50.232;18.614;2022-09-17T02:01:36;8.10;;;5.60;;
73585;SDS011;61865;50.232;18.614;2022-09-17T02:04:03;8.55;;;5.53;;
73585;SDS011;61865;50.232;18.614;2022-09-17T02:06:29;8.48;;;5.95;;
73585;SDS011;61865;50.232;18.614;2022-09-17T02:08:55;9.90;;;6.05;;
73585;SDS011;61865;50.232;18.614;2022-09-17T02:11:22;8.95;;;5.90;;
73585;SDS011;61865;50.232;18.614;2022-09-17T02:13:45;8.05;;;5.72;;
73585;SDS011;61865;50.232;18.614;2022-09-17T02:16:14;6.55;;;4.45;;
73585;SDS011;61865;50.232;18.614;2022-09-17T02:18:42;6.78;;;4.75;;
73585;SDS011;61865;50.232;18.614;2022-09-17T02:21:12;9.25;;;5.25;;
73585;SDS011;61865;50.232;18.614;2022-09-17T02:23:40;9.90;;;5.90;;
73585;SDS011;61865;50.232;18.614;2022-09-17T02:26:07;10.48;;;6.40;;
73585;SDS011;61865;50.232;18.614;2022-09-17T02:28:32;11.38;;;6.82;;
73585;SDS011;61865;50.232;18.614;2022-09-17T02:31:01;9.57;;;6.07;;
73585;SDS011;61865;50.232;18.614;2022-09-17T02:33:23;9.82;;;6.45;;
73585;SDS011;61865;50.232;18.614;2022-09-17T02:35:46;9.30;;;6.45;;
73585;SDS011;61865;50.232;18.614;2022-09-17T02:38:09;9.55;;;6.90;;
73585;SDS011;61865;50.232;18.614;2022-09-17T02:40:34;8.60;;;6.00;;
73585;SDS011;61865;50.232;18.614;2022-09-17T02:43:03;8.27;;;6.38;;
73585;SDS011;61865;50.232;18.614;2022-09-17T02:45:38;8.00;;;5.65;;
73585;SDS011;61865;50.232;18.614;2022-09-17T02:51:04;11.23;;;5.57;;
73585;SDS011;61865;50.232;18.614;2022-09-17T02:53:38;7.90;;;5.65;;
73585;SDS011;61865;50.232;18.614;2022-09-17T02:56:07;8.38;;;5.78;;
73585;SDS011;61865;50.232;18.614;2022-09-17T02:58:37;7.32;;;5.47;;
73585;SDS011;61865;50.232;18.614;2022-09-17T03:01:03;8.68;;;6.28;;
73585;SDS011;61865;50.232;18.614;2022-09-17T03:03:30;12.77;;;6.80;;
73585;SDS011;61865;50.232;18.614;2022-09-17T03:05:55;8.57;;;5.72;;
73585;SDS011;61865;50.232;18.614;2022-09-17T03:08:17;11.02;;;6.22;;
73585;SDS011;61865;50.232;18.614;2022-09-17T03:10:42;11.15;;;5.88;;
73585;SDS011;61865;50.232;18.614;2022-09-17T03:13:04;7.45;;;5.07;;
73585;SDS011;61865;50.232;18.614;2022-09-17T03:15:26;7.70;;;5.50;;
73585;SDS011;61865;50.232;18.614;2022-09-17T03:17:48;8.23;;;5.82;;
73585;SDS011;61865;50.232;18.614;2022-09-17T03:20:10;7.13;;;5.57;;
73585;SDS011;61865;50.232;18.614;2022-09-17T03:22:34;7.95;;;5.80;;
73585;SDS011;61865;50.232;18.614;2022-09-17T03:24:56;7.63;;;5.43;;
73585;SDS011;61865;50.232;18.614;2022-09-17T03:27:19;6.53;;;5.22;;
73585;SDS011;61865;50.232;18.614;2022-09-17T03:29:41;6.03;;;4.63;;
73585;SDS011;61865;50.232;18.614;2022-09-17T03:32:03;6.88;;;5.45;;
73585;SDS011;61865;50.232;18.614;2022-09-17T03:34:26;8.13;;;5.55;;
73585;SDS011;61865;50.232;18.614;2022-09-17T03:36:47;11.20;;;5.97;;
73585;SDS011;61865;50.232;18.614;2022-09-17T03:39:09;9.85;;;6.05;;
73585;SDS011;61865;50.232;18.614;2022-09-17T03:41:32;11.50;;;5.78;;
73585;SDS011;61865;50.232;18.614;2022-09-17T03:43:55;7.88;;;6.25;;
73585;SDS011;61865;50.232;18.614;2022-09-17T03:46:17;7.97;;;6.03;;
73585;SDS011;61865;50.232;18.614;2022-09-17T03:48:40;7.05;;;5.35;;
73585;SDS011;61865;50.232;18.614;2022-09-17T03:51:02;7.80;;;6.20;;
73585;SDS011;61865;50.232;18.614;2022-09-17T03:53:24;10.50;;;5.50;;
73585;SDS011;61865;50.232;18.614;2022-09-17T03:55:46;7.90;;;5.95;;
73585;SDS011;61865;50.232;18.614;2022-09-17T03:58:08;7.15;;;5.40;;
73585;SDS011;61865;50.232;18.614;2022-09-17T04:00:31;8.43;;;5.38;;
73585;SDS011;61865;50.232;18.614;2022-09-17T04:02:56;7.85;;;5.95;;
73585;SDS011;61865;50.232;18.614;2022-09-17T04:05:17;10.25;;;6.78;;
73585;SDS011;61865;50.232;18.614;2022-09-17T04:07:39;13.35;;;8.60;;
73585;SDS011;61865;50.232;18.614;2022-09-17T04:10:01;16.77;;;9.48;;
73585;SDS011;61865;50.232;18.614;2022-09-17T04:12:24;12.02;;;8.75;;
73585;SDS011;61865;50.232;18.614;2022-09-17T04:14:46;12.18;;;8.48;;
73585;SDS011;61865;50.232;18.614;2022-09-17T04:17:09;12.18;;;8.40;;
73585;SDS011;61865;50.232;18.614;2022-09-17T04:19:31;12.05;;;8.10;;
73585;SDS011;61865;50.232;18.614;2022-09-17T04:21:53;10.88;;;7.78;;
73585;SDS011;61865;50.232;18.614;2022-09-17T04:24:15;13.13;;;7.97;;
73585;SDS011;61865;50.232;18.614;2022-09-17T04:26:36;12.57;;;8.05;;
73585;SDS011;61865;50.232;18.614;2022-09-17T04:28:58;12.18;;;7.60;;
73585;SDS011;61865;50.232;18.614;2022-09-17T04:31:20;11.55;;;7.57;;
73585;SDS011;61865;50.232;18.614;2022-09-17T04:33:45;10.20;;;7.63;;
73585;SDS011;61865;50.232;18.614;2022-09-17T04:36:07;13.80;;;7.78;;
73585;SDS011;61865;50.232;18.614;2022-09-17T04:38:28;12.35;;;7.75;;
73585;SDS011;61865;50.232;18.614;2022-09-17T04:40:51;9.52;;;7.55;;
73585;SDS011;61865;50.232;18.614;2022-09-17T04:43:16;8.88;;;6.25;;
73585;SDS011;61865;50.232;18.614;2022-09-17T04:45:38;11.38;;;6.70;;
73585;SDS011;61865;50.232;18.614;2022-09-17T04:48:00;9.75;;;7.43;;
73585;SDS011;61865;50.232;18.614;2022-09-17T04:50:23;10.38;;;6.47;;
73585;SDS011;61865;50.232;18.614;2022-09-17T04:52:45;10.48;;;5.95;;
73585;SDS011;61865;50.232;18.614;2022-09-17T04:55:08;8.15;;;6.63;;
73585;SDS011;61865;50.232;18.614;2022-09-17T04:57:30;9.32;;;7.22;;
73585;SDS011;61865;50.232;18.614;2022-09-17T04:59:52;13.80;;;8.32;;
73585;SDS011;61865;50.232;18.614;2022-09-17T05:02:14;14.85;;;7.90;;
73585;SDS011;61865;50.232;18.614;2022-09-17T05:04:35;8.23;;;6.10;;
73585;SDS011;61865;50.232;18.614;2022-09-17T05:06:59;9.32;;;7.47;;
73585;SDS011;61865;50.232;18.614;2022-09-17T05:09:21;10.73;;;8.77;;
73585;SDS011;61865;50.232;18.614;2022-09-17T05:11:43;12.30;;;8.32;;
73585;SDS011;61865;50.232;18.614;2022-09-17T05:14:05;11.52;;;7.45;;
73585;SDS011;61865;50.232;18.614;2022-09-17T05:16:27;10.63;;;8.05;;
73585;SDS011;61865;50.232;18.614;2022-09-17T05:18:49;8.40;;;6.72;;
73585;SDS011;61865;50.232;18.614;2022-09-17T05:21:11;10.15;;;7.43;;
73585;SDS011;61865;50.232;18.614;2022-09-17T05:23:34;9.52;;;5.75;;
73585;SDS011;61865;50.232;18.614;2022-09-17T05:25:56;6.05;;;4.75;;
73585;SDS011;61865;50.232;18.614;2022-09-17T05:28:19;9.43;;;5.45;;
73585;SDS011;61865;50.232;18.614;2022-09-17T05:30:41;7.30;;;5.75;;
73585;SDS011;61865;50.232;18.614;2022-09-17T05:33:03;11.23;;;6.85;;
73585;SDS011;61865;50.232;18.614;2022-09-17T05:35:26;10.60;;;6.75;;
73585;SDS011;61865;50.232;18.614;2022-09-17T05:37:48;10.18;;;7.15;;
73585;SDS011;61865;50.232;18.614;2022-09-17T05:40:11;10.80;;;7.20;;
73585;SDS011;61865;50.232;18.614;2022-09-17T05:42:33;9.13;;;6.78;;
73585;SDS011;61865;50.232;18.614;2022-09-17T05:44:55;8.82;;;6.88;;
73585;SDS011;61865;50.232;18.614;2022-09-17T05:47:17;10.43;;;6.90;;
73585;SDS011;61865;50.232;18.614;2022-09-17T05:49:39;9.75;;;6.90;;
73585;SDS011;61865;50.232;18.614;2022-09-17T05:52:01;11.00;;;6.65;;
73585;SDS011;61865;50.232;18.614;2022-09-17T05:54:23;9.43;;;5.90;;
73585;SDS011;61865;50.232;18.614;2022-09-17T05:56:46;11.57;;;6.38;;
73585;SDS011;61865;50.232;18.614;2022-09-17T05:59:08;7.35;;;5.28;;
73585;SDS011;61865;50.232;18.614;2022-09-17T06:01:30;9.43;;;5.72;;
73585;SDS011;61865;50.232;18.614;2022-09-17T06:03:52;8.48;;;5.35;;
73585;SDS011;61865;50.232;18.614;2022-09-17T06:06:14;7.28;;;5.43;;
73585;SDS011;61865;50.232;18.614;2022-09-17T06:08:35;6.68;;;5.13;;
73585;SDS011;61865;50.232;18.614;2022-09-17T06:10:57;7.53;;;4.80;;
73585;SDS011;61865;50.232;18.614;2022-09-17T06:13:25;8.57;;;5.03;;
73585;SDS011;61865;50.232;18.614;2022-09-17T06:15:50;8.10;;;4.88;;
73585;SDS011;61865;50.232;18.614;2022-09-17T06:18:12;6.15;;;4.75;;
73585;SDS011;61865;50.232;18.614;2022-09-17T06:20:34;7.13;;;4.35;;
73585;SDS011;61865;50.232;18.614;2022-09-17T06:22:56;11.18;;;4.85;;
73585;SDS011;61865;50.232;18.614;2022-09-17T06:25:18;8.13;;;4.97;;
73585;SDS011;61865;50.232;18.614;2022-09-17T06:27:40;9.50;;;5.50;;
73585;SDS011;61865;50.232;18.614;2022-09-17T06:30:04;9.82;;;4.80;;
73585;SDS011;61865;50.232;18.614;2022-09-17T06:32:27;10.82;;;6.20;;
73585;SDS011;61865;50.232;18.614;2022-09-17T06:34:49;10.32;;;4.63;;
73585;SDS011;61865;50.232;18.614;2022-09-17T06:37:11;9.15;;;5.05;;
73585;SDS011;61865;50.232;18.614;2022-09-17T06:39:33;6.22;;;4.50;;
73585;SDS011;61865;50.232;18.614;2022-09-17T06:41:55;11.82;;;4.53;;
73585;SDS011;61865;50.232;18.614;2022-09-17T06:44:18;7.45;;;4.20;;
73585;SDS011;61865;50.232;18.614;2022-09-17T06:46:41;9.93;;;4.47;;
73585;SDS011;61865;50.232;18.614;2022-09-17T06:49:03;10.23;;;4.32;;
73585;SDS011;61865;50.232;18.614;2022-09-17T06:51:25;5.53;;;4.15;;
73585;SDS011;61865;50.232;18.614;2022-09-17T06:53:47;8.65;;;4.78;;
73585;SDS011;61865;50.232;18.614;2022-09-17T06:56:09;7.47;;;4.07;;
73585;SDS011;61865;50.232;18.614;2022-09-17T06:58:31;6.78;;;4.13;;
73585;SDS011;61865;50.232;18.614;2022-09-17T07:00:56;5.47;;;3.65;;
73585;SDS011;61865;50.232;18.614;2022-09-17T07:03:20;8.88;;;4.53;;
73585;SDS011;61865;50.232;18.614;2022-09-17T07:05:42;7.22;;;3.75;;
73585;SDS011;61865;50.232;18.614;2022-09-17T07:08:05;6.72;;;3.95;;
73585;SDS011;61865;50.232;18.614;2022-09-17T07:10:27;8.18;;;4.00;;
73585;SDS011;61865;50.232;18.614;2022-09-17T07:12:49;7.05;;;4.10;;
73585;SDS011;61865;50.232;18.614;2022-09-17T07:15:11;8.25;;;3.80;;
73585;SDS011;61865;50.232;18.614;2022-09-17T07:17:34;6.35;;;3.90;;
73585;SDS011;61865;50.232;18.614;2022-09-17T07:19:58;9.18;;;4.22;;
73585;SDS011;61865;50.232;18.614;2022-09-17T07:22:20;6.75;;;3.80;;
73585;SDS011;61865;50.232;18.614;2022-09-17T07:24:44;8.52;;;3.80;;
73585;SDS011;61865;50.232;18.614;2022-09-17T07:27:06;5.35;;;3.30;;
73585;SDS011;61865;50.232;18.614;2022-09-17T07:29:28;6.38;;;3.40;;
73585;SDS011;61865;50.232;18.614;2022-09-17T07:31:51;8.68;;;3.30;;
73585;SDS011;61865;50.232;18.614;2022-09-17T07:34:13;6.55;;;3.40;;
73585;SDS011;61865;50.232;18.614;2022-09-17T07:36:36;7.25;;;3.50;;
73585;SDS011;61865;50.232;18.614;2022-09-17T07:38:58;7.43;;;2.92;;
73585;SDS011;61865;50.232;18.614;2022-09-17T07:41:20;5.72;;;2.60;;
73585;SDS011;61865;50.232;18.614;2022-09-17T07:43:42;3.35;;;2.45;;
73585;SDS011;61865;50.232;18.614;2022-09-17T07:46:05;4.50;;;2.70;;
73585;SDS011;61865;50.232;18.614;2022-09-17T07:48:27;5.45;;;2.88;;
73585;SDS011;61865;50.232;18.614;2022-09-17T07:50:51;3.47;;;2.38;;
73585;SDS011;61865;50.232;18.614;2022-09-17T07:53:14;3.60;;;2.47;;
73585;SDS011;61865;50.232;18.614;2022-09-17T07:55:36;6.43;;;2.58;;
73585;SDS011;61865;50.232;18.614;2022-09-17T07:57:58;5.05;;;2.70;;
73585;SDS011;61865;50.232;18.614;2022-09-17T08:00:20;4.70;;;2.67;;
73585;SDS011;61865;50.232;18.614;2022-09-17T08:02:41;5.20;;;2.78;;
73585;SDS011;61865;50.232;18.614;2022-09-17T08:05:04;3.30;;;2.33;;
73585;SDS011;61865;50.232;18.614;2022-09-17T08:07:26;3.10;;;2.20;;
73585;SDS011;61865;50.232;18.614;2022-09-17T08:09:49;5.72;;;2.60;;
73585;SDS011;61865;50.232;18.614;2022-09-17T08:12:11;4.57;;;2.30;;
73585;SDS011;61865;50.232;18.614;2022-09-17T08:14:33;3.47;;;2.10;;
73585;SDS011;61865;50.232;18.614;2022-09-17T08:16:55;4.30;;;2.65;;
73585;SDS011;61865;50.232;18.614;2022-09-17T08:19:17;3.95;;;2.40;;
73585;SDS011;61865;50.232;18.614;2022-09-17T08:21:39;6.30;;;2.13;;
73585;SDS011;61865;50.232;18.614;2022-09-17T08:24:01;11.43;;;2.80;;
73585;SDS011;61865;50.232;18.614;2022-09-17T08:26:24;4.43;;;2.30;;
73585;SDS011;61865;50.232;18.614;2022-09-17T08:28:47;3.22;;;2.00;;
73585;SDS011;61865;50.232;18.614;2022-09-17T08:31:10;4.97;;;2.20;;
73585;SDS011;61865;50.232;18.614;2022-09-17T08:33:33;7.80;;;2.17;;
73585;SDS011;61865;50.232;18.614;2022-09-17T08:35:56;4.15;;;2.15;;
73585;SDS011;61865;50.232;18.614;2022-09-17T08:38:18;3.65;;;2.10;;
73585;SDS011;61865;50.232;18.614;2022-09-17T08:40:41;7.07;;;2.35;;
73585;SDS011;61865;50.232;18.614;2022-09-17T08:43:13;4.00;;;2.15;;
73585;SDS011;61865;50.232;18.614;2022-09-17T08:45:38;6.68;;;2.20;;
73585;SDS011;61865;50.232;18.614;2022-09-17T08:48:00;3.53;;;2.08;;
73585;SDS011;61865;50.232;18.614;2022-09-17T08:50:25;7.93;;;2.22;;
73585;SDS011;61865;50.232;18.614;2022-09-17T08:52:56;25.25;;;8.07;;
73585;SDS011;61865;50.232;18.614;2022-09-17T08:55:27;5.07;;;2.30;;
73585;SDS011;61865;50.232;18.614;2022-09-17T08:57:55;4.00;;;2.65;;
73585;SDS011;61865;50.232;18.614;2022-09-17T09:00:28;6.03;;;3.00;;
73585;SDS011;61865;50.232;18.614;2022-09-17T09:03:01;5.18;;;2.00;;
73585;SDS011;61865;50.232;18.614;2022-09-17T09:05:38;3.75;;;2.20;;
73585;SDS011;61865;50.232;18.614;2022-09-17T09:08:04;6.35;;;2.42;;
73585;SDS011;61865;50.232;18.614;2022-09-17T09:10:34;5.00;;;2.40;;
73585;SDS011;61865;50.232;18.614;2022-09-17T09:13:04;3.45;;;2.22;;
73585;SDS011;61865;50.232;18.614;2022-09-17T09:15:30;4.00;;;2.05;;
73585;SDS011;61865;50.232;18.614;2022-09-17T09:17:56;4.57;;;2.40;;
73585;SDS011;61865;50.232;18.614;2022-09-17T09:20:27;6.25;;;2.20;;
73585;SDS011;61865;50.232;18.614;2022-09-17T09:22:52;5.20;;;2.30;;
73585;SDS011;61865;50.232;18.614;2022-09-17T09:25:17;3.95;;;1.98;;
73585;SDS011;61865;50.232;18.614;2022-09-17T09:27:42;4.32;;;2.17;;
73585;SDS011;61865;50.232;18.614;2022-09-17T09:30:10;2.78;;;1.90;;
73585;SDS011;61865;50.232;18.614;2022-09-17T09:32:43;5.32;;;2.50;;
73585;SDS011;61865;50.232;18.614;2022-09-17T09:35:16;4.97;;;2.38;;
73585;SDS011;61865;50.232;18.614;2022-09-17T09:37:40;7.38;;;3.47;;
73585;SDS011;61865;50.232;18.614;2022-09-17T09:40:12;3.50;;;2.10;;
73585;SDS011;61865;50.232;18.614;2022-09-17T09:42:43;5.68;;;2.10;;
73585;SDS011;61865;50.232;18.614;2022-09-17T09:45:11;3.22;;;2.10;;
73585;SDS011;61865;50.232;18.614;2022-09-17T09:47:39;6.03;;;2.65;;
73585;SDS011;61865;50.232;18.614;2022-09-17T09:52:47;3.50;;;1.90;;
73585;SDS011;61865;50.232;18.614;2022-09-17T09:55:22;6.75;;;3.00;;
73585;SDS011;61865;50.232;18.614;2022-09-17T09:57:55;3.85;;;2.00;;
73585;SDS011;61865;50.232;18.614;2022-09-17T10:00:24;8.50;;;3.92;;
73585;SDS011;61865;50.232;18.614;2022-09-17T10:02:49;5.68;;;3.10;;
73585;SDS011;61865;50.232;18.614;2022-09-17T10:05:16;2.92;;;2.10;;
73585;SDS011;61865;50.232;18.614;2022-09-17T10:07:41;3.88;;;2.20;;
73585;SDS011;61865;50.232;18.614;2022-09-17T10:10:06;3.42;;;2.00;;
73585;SDS011;61865;50.232;18.614;2022-09-17T10:12:29;3.38;;;2.08;;
73585;SDS011;61865;50.232;18.614;2022-09-17T10:14:51;4.03;;;1.98;;
73585;SDS011;61865;50.232;18.614;2022-09-17T10:17:16;4.50;;;2.30;;
73585;SDS011;61865;50.232;18.614;2022-09-17T10:19:42;3.83;;;1.80;;
73585;SDS011;61865;50.232;18.614;2022-09-17T10:22:17;4.40;;;1.90;;
73585;SDS011;61865;50.232;18.614;2022-09-17T10:24:44;4.00;;;2.10;;
73585;SDS011;61865;50.232;18.614;2022-09-17T10:27:11;5.47;;;2.00;;
73585;SDS011;61865;50.232;18.614;2022-09-17T10:29:36;4.20;;;2.20;;
73585;SDS011;61865;50.232;18.614;2022-09-17T10:32:03;7.18;;;2.40;;
73585;SDS011;61865;50.232;18.614;2022-09-17T10:34:27;5.20;;;2.38;;
73585;SDS011;61865;50.232;18.614;2022-09-17T10:36:52;4.38;;;2.70;;
73585;SDS011;61865;50.232;18.614;2022-09-17T10:41:56;5.05;;;2.58;;
73585;SDS011;61865;50.232;18.614;2022-09-17T10:44:20;4.55;;;2.60;;
73585;SDS011;61865;50.232;18.614;2022-09-17T10:46:42;3.20;;;2.20;;
73585;SDS011;61865;50.232;18.614;2022-09-17T10:49:08;3.33;;;2.30;;
73585;SDS011;61865;50.232;18.614;2022-09-17T10:51:32;5.82;;;2.47;;
73585;SDS011;61865;50.232;18.614;2022-09-17T10:56:50;3.67;;;2.25;;
73585;SDS011;61865;50.232;18.614;2022-09-17T10:59:21;7.68;;;2.58;;
73585;SDS011;61865;50.232;18.614;2022-09-17T11:01:59;3.05;;;2.10;;
73585;SDS011;61865;50.232;18.614;2022-09-17T11:04:34;4.50;;;2.38;;
73585;SDS011;61865;50.232;18.614;2022-09-17T11:07:13;3.65;;;2.60;;
73585;SDS011;61865;50.232;18.614;2022-09-17T11:09:52;8.30;;;2.85;;
73585;SDS011;61865;50.232;18.614;2022-09-17T11:12:25;5.00;;;2.70;;
73585;SDS011;61865;50.232;18.614;2022-09-17T11:14:53;5.28;;;3.13;;
73585;SDS011;61865;50.232;18.614;2022-09-17T11:17:24;5.53;;;3.20;;
73585;SDS011;61865;50.232;18.614;2022-09-17T11:19:57;6.60;;;3.75;;
73585;SDS011;61865;50.232;18.614;2022-09-17T11:22:22;5.60;;;3.50;;
73585;SDS011;61865;50.232;18.614;2022-09-17T11:25:14;6.38;;;3.42;;
73585;SDS011;61865;50.232;18.614;2022-09-17T11:27:48;7.03;;;3.40;;
73585;SDS011;61865;50.232;18.614;2022-09-17T11:30:18;5.28;;;3.22;;
73585;SDS011;61865;50.232;18.614;2022-09-17T11:32:50;5.10;;;3.15;;
73585;SDS011;61865;50.232;18.614;2022-09-17T11:35:21;4.45;;;3.10;;
73585;SDS011;61865;50.232;18.614;2022-09-17T11:37:47;6.88;;;3.42;;
73585;SDS011;61865;50.232;18.614;2022-09-17T11:40:13;6.32;;;3.75;;
73585;SDS011;61865;50.232;18.614;2022-09-17T11:42:41;8.75;;;3.70;;
73585;SDS011;61865;50.232;18.614;2022-09-17T11:45:11;7.00;;;3.35;;
73585;SDS011;61865;50.232;18.614;2022-09-17T11:47:39;5.00;;;3.30;;
73585;SDS011;61865;50.232;18.614;2022-09-17T11:50:08;6.05;;;3.30;;
73585;SDS011;61865;50.232;18.614;2022-09-17T11:52:40;5.60;;;3.45;;
73585;SDS011;61865;50.232;18.614;2022-09-17T11:55:08;4.63;;;3.00;;
73585;SDS011;61865;50.232;18.614;2022-09-17T11:57:42;7.13;;;3.10;;
73585;SDS011;61865;50.232;18.614;2022-09-17T12:00:13;6.78;;;2.80;;
73585;SDS011;61865;50.232;18.614;2022-09-17T12:02:41;5.78;;;2.88;;
73585;SDS011;61865;50.232;18.614;2022-09-17T12:05:13;6.90;;;3.00;;
73585;SDS011;61865;50.232;18.614;2022-09-17T12:07:39;4.45;;;2.70;;
73585;SDS011;61865;50.232;18.614;2022-09-17T12:10:16;8.80;;;3.55;;
73585;SDS011;61865;50.232;18.614;2022-09-17T12:12:43;6.43;;;3.42;;
73585;SDS011;61865;50.232;18.614;2022-09-17T12:15:14;6.95;;;3.40;;
73585;SDS011;61865;50.232;18.614;2022-09-17T12:17:42;5.03;;;2.70;;
73585;SDS011;61865;50.232;18.614;2022-09-17T12:20:13;5.15;;;2.10;;
73585;SDS011;61865;50.232;18.614;2022-09-17T12:22:43;5.13;;;2.55;;
73585;SDS011;61865;50.232;18.614;2022-09-17T12:25:09;2.88;;;2.05;;
73585;SDS011;61865;50.232;18.614;2022-09-17T12:27:34;4.85;;;2.15;;
73585;SDS011;61865;50.232;18.614;2022-09-17T12:30:07;3.60;;;2.17;;
73585;SDS011;61865;50.232;18.614;2022-09-17T12:35:20;3.28;;;2.10;;
73585;SDS011;61865;50.232;18.614;2022-09-17T12:37:57;4.45;;;2.30;;
73585;SDS011;61865;50.232;18.614;2022-09-17T12:40:29;3.83;;;2.22;;
73585;SDS011;61865;50.232;18.614;2022-09-17T12:43:03;6.00;;;3.28;;
73585;SDS011;61865;50.232;18.614;2022-09-17T12:45:46;6.13;;;4.05;;
73585;SDS011;61865;50.232;18.614;2022-09-17T12:48:31;5.15;;;2.88;;
73585;SDS011;61865;50.232;18.614;2022-09-17T12:51:11;4.65;;;2.42;;
73585;SDS011;61865;50.232;18.614;2022-09-17T12:53:41;5.65;;;3.40;;
73585;SDS011;61865;50.232;18.614;2022-09-17T12:56:16;3.60;;;2.35;;
73585;SDS011;61865;50.232;18.614;2022-09-17T12:58:55;5.07;;;3.05;;
73585;SDS011;61865;50.232;18.614;2022-09-17T13:01:26;4.50;;;2.70;;
73585;SDS011;61865;50.232;18.614;2022-09-17T13:03:54;5.80;;;2.90;;
73585;SDS011;61865;50.232;18.614;2022-09-17T13:09:29;9.63;;;3.55;;
73585;SDS011;61865;50.232;18.614;2022-09-17T13:12:08;4.88;;;3.00;;
73585;SDS011;61865;50.232;18.614;2022-09-17T13:14:44;6.13;;;3.35;;
73585;SDS011;61865;50.232;18.614;2022-09-17T13:17:21;5.32;;;3.38;;
73585;SDS011;61865;50.232;18.614;2022-09-17T13:19:52;6.93;;;3.45;;
73585;SDS011;61865;50.232;18.614;2022-09-17T13:22:21;4.82;;;2.63;;
73585;SDS011;61865;50.232;18.614;2022-09-17T13:25:00;4.40;;;2.72;;
73585;SDS011;61865;50.232;18.614;2022-09-17T13:27:26;5.15;;;2.70;;
73585;SDS011;61865;50.232;18.614;2022-09-17T13:29:56;8.10;;;2.50;;
73585;SDS011;61865;50.232;18.614;2022-09-17T13:32:40;5.35;;;2.40;;
73585;SDS011;61865;50.232;18.614;2022-09-17T13:38:03;8.68;;;2.70;;
73585;SDS011;61865;50.232;18.614;2022-09-17T13:40:25;3.45;;;2.30;;
73585;SDS011;61865;50.232;18.614;2022-09-17T13:42:50;5.43;;;2.35;;
73585;SDS011;61865;50.232;18.614;2022-09-17T13:45:15;3.95;;;2.30;;
73585;SDS011;61865;50.232;18.614;2022-09-17T13:47:46;5.57;;;2.30;;
73585;SDS011;61865;50.232;18.614;2022-09-17T13:50:11;3.53;;;2.40;;
73585;SDS011;61865;50.232;18.614;2022-09-17T13:52:46;4.60;;;2.22;;
73585;SDS011;61865;50.232;18.614;2022-09-17T13:57:53;6.45;;;2.90;;
73585;SDS011;61865;50.232;18.614;2022-09-17T14:09:00;6.07;;;2.30;;
73585;SDS011;61865;50.232;18.614;2022-09-17T14:11:53;8.85;;;3.58;;
73585;SDS011;61865;50.232;18.614;2022-09-17T14:17:08;6.07;;;3.30;;
73585;SDS011;61865;50.232;18.614;2022-09-17T14:19:31;5.80;;;3.00;;
73585;SDS011;61865;50.232;18.614;2022-09-17T14:21:57;5.90;;;2.33;;
73585;SDS011;61865;50.232;18.614;2022-09-17T14:24:24;4.75;;;2.20;;
73585;SDS011;61865;50.232;18.614;2022-09-17T14:26:57;3.80;;;2.30;;
73585;SDS011;61865;50.232;18.614;2022-09-17T14:29:34;4.97;;;2.35;;
73585;SDS011;61865;50.232;18.614;2022-09-17T14:32:09;6.25;;;2.30;;
73585;SDS011;61865;50.232;18.614;2022-09-17T14:34:35;5.20;;;2.55;;
73585;SDS011;61865;50.232;18.614;2022-09-17T14:37:00;4.72;;;2.40;;
73585;SDS011;61865;50.232;18.614;2022-09-17T14:39:23;5.35;;;2.30;;
73585;SDS011;61865;50.232;18.614;2022-09-17T14:41:47;4.15;;;2.58;;
73585;SDS011;61865;50.232;18.614;2022-09-17T14:44:17;4.60;;;2.40;;
73585;SDS011;61865;50.232;18.614;2022-09-17T14:46:41;5.57;;;2.63;;
73585;SDS011;61865;50.232;18.614;2022-09-17T14:49:17;5.22;;;2.92;;
73585;SDS011;61865;50.232;18.614;2022-09-17T14:51:41;4.57;;;2.80;;
73585;SDS011;61865;50.232;18.614;2022-09-17T14:54:14;3.53;;;2.30;;
73585;SDS011;61865;50.232;18.614;2022-09-17T14:56:43;7.53;;;3.20;;
73585;SDS011;61865;50.232;18.614;2022-09-17T14:59:19;6.90;;;3.80;;
73585;SDS011;61865;50.232;18.614;2022-09-17T15:02:02;11.57;;;5.75;;